sensor_id;sensor_type;location;lat;lon;timestamp;temperature;humidity
13245;DHT22;6689;53.400;12.486;2023-04-01T00:00:15;11.40;1.00
13245;DHT22;6689;53.400;12.486;2023-04-01T00:02:43;11.40;1.00
13245;DHT22;6689;53.400;12.486;2023-04-01T00:05:12;11.40;1.00
13245;DHT22;6689;53.400;12.486;2023-04-01T00:07:40;11.40;1.00
13245;DHT22;6689;53.400;12.486;2023-04-01T00:10:09;11.40;1.00
13245;DHT22;6689;53.400;12.486;2023-04-01T00:12:37;11.30;1.00
13245;DHT22;6689;53.400;12.486;2023-04-01T00:15:07;11.30;1.00
13245;DHT22;6689;53.400;12.486;2023-04-01T00:17:35;11.30;1.00
13245;DHT22;6689;53.400;12.486;2023-04-01T00:20:02;11.30;1.00
13245;DHT22;6689;53.400;12.486;2023-04-01T00:22:31;11.30;1.00
13245;DHT22;6689;53.400;12.486;2023-04-01T00:24:59;11.30;1.00
13245;DHT22;6689;53.400;12.486;2023-04-01T00:27:26;11.20;1.00
13245;DHT22;6689;53.400;12.486;2023-04-01T00:29:54;11.30;1.00
13245;DHT22;6689;53.400;12.486;2023-04-01T00:32:21;11.30;1.00
13245;DHT22;6689;53.400;12.486;2023-04-01T00:34:50;11.30;1.00
13245;DHT22;6689;53.400;12.486;2023-04-01T00:37:18;11.20;1.00
13245;DHT22;6689;53.400;12.486;2023-04-01T00:39:48;11.20;1.00
13245;DHT22;6689;53.400;12.486;2023-04-01T00:42:15;11.20;1.00
13245;DHT22;6689;53.400;12.486;2023-04-01T00:44:46;11.20;1.00
13245;DHT22;6689;53.400;12.486;2023-04-01T00:47:15;11.20;1.00
13245;DHT22;6689;53.400;12.486;2023-04-01T00:49:45;11.20;1.00
13245;DHT22;6689;53.400;12.486;2023-04-01T00:52:15;11.20;1.00
13245;DHT22;6689;53.400;12.486;2023-04-01T00:54:47;11.20;1.00
13245;DHT22;6689;53.400;12.486;2023-04-01T00:57:21;11.20;1.00
13245;DHT22;6689;53.400;12.486;2023-04-01T00:59:53;11.20;1.00
13245;DHT22;6689;53.400;12.486;2023-04-01T01:02:23;11.10;1.00
13245;DHT22;6689;53.400;12.486;2023-04-01T01:04:53;11.10;1.00
13245;DHT22;6689;53.400;12.486;2023-04-01T01:07:27;11.20;1.00
13245;DHT22;6689;53.400;12.486;2023-04-01T01:10:03;11.20;1.00
13245;DHT22;6689;53.400;12.486;2023-04-01T01:12:34;11.10;1.00
13245;DHT22;6689;53.400;12.486;2023-04-01T01:15:11;11.10;1.00
13245;DHT22;6689;53.400;12.486;2023-04-01T01:17:46;11.10;1.00
13245;DHT22;6689;53.400;12.486;2023-04-01T01:20:55;11.10;1.00
13245;DHT22;6689;53.400;12.486;2023-04-01T01:23:55;11.10;1.00
13245;DHT22;6689;53.400;12.486;2023-04-01T01:26:40;11.00;1.00
13245;DHT22;6689;53.400;12.486;2023-04-01T01:32:09;11.00;1.00
13245;DHT22;6689;53.400;12.486;2023-04-01T01:34:47;10.60;1.00
13245;DHT22;6689;53.400;12.486;2023-04-01T01:37:22;10.80;1.00
13245;DHT22;6689;53.400;12.486;2023-04-01T01:39:54;10.40;1.00
13245;DHT22;6689;53.400;12.486;2023-04-01T01:42:24;9.90;1.00
13245;DHT22;6689;53.400;12.486;2023-04-01T01:44:54;9.80;1.00
13245;DHT22;6689;53.400;12.486;2023-04-01T01:47:22;9.80;1.00
13245;DHT22;6689;53.400;12.486;2023-04-01T01:49:51;9.60;1.00
13245;DHT22;6689;53.400;12.486;2023-04-01T01:52:21;9.70;1.00
13245;DHT22;6689;53.400;12.486;2023-04-01T01:54:49;9.60;1.00
13245;DHT22;6689;53.400;12.486;2023-04-01T01:57:24;9.50;1.00
13245;DHT22;6689;53.400;12.486;2023-04-01T01:59:55;9.30;1.00
13245;DHT22;6689;53.400;12.486;2023-04-01T02:02:24;9.30;1.00
13245;DHT22;6689;53.400;12.486;2023-04-01T02:04:53;9.30;1.00
13245;DHT22;6689;53.400;12.486;2023-04-01T02:07:25;9.10;1.00
13245;DHT22;6689;53.400;12.486;2023-04-01T02:09:54;9.00;1.00
13245;DHT22;6689;53.400;12.486;2023-04-01T02:12:22;8.70;1.00
13245;DHT22;6689;53.400;12.486;2023-04-01T02:14:52;8.90;1.00
13245;DHT22;6689;53.400;12.486;2023-04-01T02:17:22;8.90;1.00
13245;DHT22;6689;53.400;12.486;2023-04-01T02:19:56;8.90;1.00
13245;DHT22;6689;53.400;12.486;2023-04-01T02:22:28;8.90;1.00
13245;DHT22;6689;53.400;12.486;2023-04-01T02:24:58;8.90;1.00
13245;DHT22;6689;53.400;12.486;2023-04-01T02:27:26;8.70;1.00
13245;DHT22;6689;53.400;12.486;2023-04-01T02:29:55;8.60;1.00
13245;DHT22;6689;53.400;12.486;2023-04-01T02:32:22;8.80;1.00
13245;DHT22;6689;53.400;12.486;2023-04-01T02:34:49;8.70;1.00
13245;DHT22;6689;53.400;12.486;2023-04-01T02:37:17;8.70;1.00
13245;DHT22;6689;53.400;12.486;2023-04-01T02:39:46;8.60;1.00
13245;DHT22;6689;53.400;12.486;2023-04-01T02:42:14;8.40;1.00
13245;DHT22;6689;53.400;12.486;2023-04-01T02:44:41;8.30;1.00
13245;DHT22;6689;53.400;12.486;2023-04-01T02:47:08;8.60;1.00
13245;DHT22;6689;53.400;12.486;2023-04-01T02:49:35;8.60;1.00
13245;DHT22;6689;53.400;12.486;2023-04-01T02:52:03;8.50;1.00
13245;DHT22;6689;53.400;12.486;2023-04-01T02:54:31;8.20;1.00
13245;DHT22;6689;53.400;12.486;2023-04-01T02:56:59;8.30;1.00
13245;DHT22;6689;53.400;12.486;2023-04-01T02:59:26;8.20;1.00
13245;DHT22;6689;53.400;12.486;2023-04-01T03:01:54;8.10;1.00
13245;DHT22;6689;53.400;12.486;2023-04-01T03:04:24;8.20;1.00
13245;DHT22;6689;53.400;12.486;2023-04-01T03:06:51;8.20;1.00
13245;DHT22;6689;53.400;12.486;2023-04-01T03:09:19;8.10;1.00
13245;DHT22;6689;53.400;12.486;2023-04-01T03:11:46;8.10;1.00
13245;DHT22;6689;53.400;12.486;2023-04-01T03:14:15;8.20;1.00
13245;DHT22;6689;53.400;12.486;2023-04-01T03:16:43;8.10;1.00
13245;DHT22;6689;53.400;12.486;2023-04-01T03:19:10;8.00;1.00
13245;DHT22;6689;53.400;12.486;2023-04-01T03:21:37;7.90;1.00
13245;DHT22;6689;53.400;12.486;2023-04-01T03:24:05;7.90;1.00
13245;DHT22;6689;53.400;12.486;2023-04-01T03:26:33;8.00;1.00
13245;DHT22;6689;53.400;12.486;2023-04-01T03:29:00;7.90;1.00
13245;DHT22;6689;53.400;12.486;2023-04-01T03:31:29;7.70;1.00
13245;DHT22;6689;53.400;12.486;2023-04-01T03:33:56;7.90;1.00
13245;DHT22;6689;53.400;12.486;2023-04-01T03:36:23;7.70;1.00
13245;DHT22;6689;53.400;12.486;2023-04-01T03:38:51;7.80;1.00
13245;DHT22;6689;53.400;12.486;2023-04-01T03:41:18;7.70;1.00
13245;DHT22;6689;53.400;12.486;2023-04-01T03:43:45;7.70;1.00
13245;DHT22;6689;53.400;12.486;2023-04-01T03:46:17;7.60;1.00
13245;DHT22;6689;53.400;12.486;2023-04-01T03:48:46;7.50;1.00
13245;DHT22;6689;53.400;12.486;2023-04-01T03:51:13;7.40;1.00
13245;DHT22;6689;53.400;12.486;2023-04-01T03:53:41;7.30;1.00
13245;DHT22;6689;53.400;12.486;2023-04-01T03:56:09;7.40;1.00
13245;DHT22;6689;53.400;12.486;2023-04-01T03:58:37;7.00;11.00
13245;DHT22;6689;53.400;12.486;2023-04-01T04:01:14;7.10;1.00
13245;DHT22;6689;53.400;12.486;2023-04-01T04:03:41;7.30;1.00
13245;DHT22;6689;53.400;12.486;2023-04-01T04:06:12;7.10;1.00
13245;DHT22;6689;53.400;12.486;2023-04-01T04:08:40;7.30;1.00
13245;DHT22;6689;53.400;12.486;2023-04-01T04:11:08;7.20;1.00
13245;DHT22;6689;53.400;12.486;2023-04-01T04:13:36;7.30;1.00
13245;DHT22;6689;53.400;12.486;2023-04-01T04:16:03;7.40;1.00
13245;DHT22;6689;53.400;12.486;2023-04-01T04:18:31;7.40;1.00
13245;DHT22;6689;53.400;12.486;2023-04-01T04:20:58;7.20;1.00
13245;DHT22;6689;53.400;12.486;2023-04-01T04:23:27;7.30;1.00
13245;DHT22;6689;53.400;12.486;2023-04-01T04:25:57;6.80;1.00
13245;DHT22;6689;53.400;12.486;2023-04-01T04:28:25;7.10;1.00
13245;DHT22;6689;53.400;12.486;2023-04-01T04:30:52;7.10;1.00
13245;DHT22;6689;53.400;12.486;2023-04-01T04:33:21;7.10;1.00
13245;DHT22;6689;53.400;12.486;2023-04-01T04:35:48;7.20;1.00
13245;DHT22;6689;53.400;12.486;2023-04-01T04:38:16;7.20;1.00
13245;DHT22;6689;53.400;12.486;2023-04-01T04:40:45;6.90;1.00
13245;DHT22;6689;53.400;12.486;2023-04-01T04:43:15;7.00;1.00
13245;DHT22;6689;53.400;12.486;2023-04-01T04:45:42;7.10;1.00
13245;DHT22;6689;53.400;12.486;2023-04-01T04:48:10;7.00;1.00
13245;DHT22;6689;53.400;12.486;2023-04-01T04:50:41;6.90;1.00
13245;DHT22;6689;53.400;12.486;2023-04-01T04:53:09;6.80;1.00
13245;DHT22;6689;53.400;12.486;2023-04-01T04:55:37;6.70;1.00
13245;DHT22;6689;53.400;12.486;2023-04-01T04:58:05;6.80;1.00
13245;DHT22;6689;53.400;12.486;2023-04-01T05:00:33;6.70;1.00
13245;DHT22;6689;53.400;12.486;2023-04-01T05:03:00;6.90;1.00
13245;DHT22;6689;53.400;12.486;2023-04-01T05:05:27;6.90;1.00
13245;DHT22;6689;53.400;12.486;2023-04-01T05:07:55;6.90;1.00
13245;DHT22;6689;53.400;12.486;2023-04-01T05:10:24;6.90;1.00
13245;DHT22;6689;53.400;12.486;2023-04-01T05:12:52;7.00;1.00
13245;DHT22;6689;53.400;12.486;2023-04-01T05:15:21;6.80;1.00
13245;DHT22;6689;53.400;12.486;2023-04-01T05:17:48;7.00;1.00
13245;DHT22;6689;53.400;12.486;2023-04-01T05:20:16;6.70;1.00
13245;DHT22;6689;53.400;12.486;2023-04-01T05:22:43;6.70;10.10
13245;DHT22;6689;53.400;12.486;2023-04-01T05:25:10;6.60;1.00
13245;DHT22;6689;53.400;12.486;2023-04-01T05:27:38;6.90;1.00
13245;DHT22;6689;53.400;12.486;2023-04-01T05:30:06;6.80;1.00
13245;DHT22;6689;53.400;12.486;2023-04-01T05:32:35;6.90;1.00
13245;DHT22;6689;53.400;12.486;2023-04-01T05:35:02;6.90;1.00
13245;DHT22;6689;53.400;12.486;2023-04-01T05:37:30;6.70;1.00
13245;DHT22;6689;53.400;12.486;2023-04-01T05:39:57;6.70;1.00
13245;DHT22;6689;53.400;12.486;2023-04-01T05:42:25;6.80;1.00
13245;DHT22;6689;53.400;12.486;2023-04-01T05:44:55;6.90;1.00
13245;DHT22;6689;53.400;12.486;2023-04-01T05:47:22;6.90;1.00
13245;DHT22;6689;53.400;12.486;2023-04-01T05:49:51;6.80;1.00
13245;DHT22;6689;53.400;12.486;2023-04-01T05:52:18;6.90;1.00
13245;DHT22;6689;53.400;12.486;2023-04-01T05:54:45;6.90;1.00
13245;DHT22;6689;53.400;12.486;2023-04-01T05:57:16;6.90;1.00
13245;DHT22;6689;53.400;12.486;2023-04-01T05:59:43;6.70;1.00
13245;DHT22;6689;53.400;12.486;2023-04-01T06:02:11;6.80;1.00
13245;DHT22;6689;53.400;12.486;2023-04-01T06:04:39;6.90;1.00
13245;DHT22;6689;53.400;12.486;2023-04-01T06:07:13;6.90;1.00
13245;DHT22;6689;53.400;12.486;2023-04-01T06:09:43;6.90;1.00
13245;DHT22;6689;53.400;12.486;2023-04-01T06:12:24;6.80;1.00
13245;DHT22;6689;53.400;12.486;2023-04-01T06:15:06;6.80;1.00
13245;DHT22;6689;53.400;12.486;2023-04-01T06:17:51;6.80;1.00
13245;DHT22;6689;53.400;12.486;2023-04-01T06:20:25;6.70;1.00
13245;DHT22;6689;53.400;12.486;2023-04-01T06:23:10;6.60;1.00
13245;DHT22;6689;53.400;12.486;2023-04-01T06:25:58;6.70;1.00
13245;DHT22;6689;53.400;12.486;2023-04-01T06:28:45;6.70;1.00
13245;DHT22;6689;53.400;12.486;2023-04-01T06:31:27;6.70;1.00
13245;DHT22;6689;53.400;12.486;2023-04-01T06:34:10;6.80;1.00
13245;DHT22;6689;53.400;12.486;2023-04-01T06:40:05;6.70;1.00
13245;DHT22;6689;53.400;12.486;2023-04-01T06:42:56;6.60;1.00
13245;DHT22;6689;53.400;12.486;2023-04-01T06:45:34;6.80;1.00
13245;DHT22;6689;53.400;12.486;2023-04-01T06:48:28;6.50;1.00
13245;DHT22;6689;53.400;12.486;2023-04-01T06:51:04;6.60;1.00
13245;DHT22;6689;53.400;12.486;2023-04-01T06:53:38;6.70;1.00
13245;DHT22;6689;53.400;12.486;2023-04-01T06:56:11;6.80;1.00
13245;DHT22;6689;53.400;12.486;2023-04-01T06:58:44;6.90;1.00
13245;DHT22;6689;53.400;12.486;2023-04-01T07:01:16;6.70;1.00
13245;DHT22;6689;53.400;12.486;2023-04-01T07:03:47;6.80;1.00
13245;DHT22;6689;53.400;12.486;2023-04-01T07:06:24;6.80;1.00
13245;DHT22;6689;53.400;12.486;2023-04-01T07:08:54;6.80;1.00
13245;DHT22;6689;53.400;12.486;2023-04-01T07:11:26;6.90;1.00
13245;DHT22;6689;53.400;12.486;2023-04-01T07:13:59;6.90;1.00
13245;DHT22;6689;53.400;12.486;2023-04-01T07:16:30;6.90;1.00
13245;DHT22;6689;53.400;12.486;2023-04-01T07:19:03;6.70;1.00
13245;DHT22;6689;53.400;12.486;2023-04-01T07:21:36;6.90;1.00
13245;DHT22;6689;53.400;12.486;2023-04-01T07:24:12;7.00;1.00
13245;DHT22;6689;53.400;12.486;2023-04-01T07:26:44;6.80;1.00
13245;DHT22;6689;53.400;12.486;2023-04-01T07:29:14;7.00;1.00
13245;DHT22;6689;53.400;12.486;2023-04-01T07:34:37;6.90;1.00
13245;DHT22;6689;53.400;12.486;2023-04-01T07:37:12;6.90;1.00
13245;DHT22;6689;53.400;12.486;2023-04-01T07:39:48;6.60;1.00
13245;DHT22;6689;53.400;12.486;2023-04-01T07:42:26;6.90;1.00
13245;DHT22;6689;53.400;12.486;2023-04-01T07:45:04;6.90;1.00
13245;DHT22;6689;53.400;12.486;2023-04-01T07:47:47;6.90;1.00
13245;DHT22;6689;53.400;12.486;2023-04-01T07:50:22;6.90;1.00
13245;DHT22;6689;53.400;12.486;2023-04-01T07:53:03;6.80;1.00
13245;DHT22;6689;53.400;12.486;2023-04-01T07:55:35;6.70;1.00
13245;DHT22;6689;53.400;12.486;2023-04-01T07:58:14;6.80;1.00
13245;DHT22;6689;53.400;12.486;2023-04-01T08:00:48;6.70;1.00
13245;DHT22;6689;53.400;12.486;2023-04-01T08:03:52;7.00;1.00
13245;DHT22;6689;53.400;12.486;2023-04-01T08:06:26;7.00;1.00
13245;DHT22;6689;53.400;12.486;2023-04-01T08:09:00;7.00;1.00
13245;DHT22;6689;53.400;12.486;2023-04-01T08:11:39;6.70;33.20
13245;DHT22;6689;53.400;12.486;2023-04-01T08:14:16;6.60;15.60
13245;DHT22;6689;53.400;12.486;2023-04-01T08:16:54;6.60;1.00
13245;DHT22;6689;53.400;12.486;2023-04-01T08:19:39;6.90;1.00
13245;DHT22;6689;53.400;12.486;2023-04-01T08:22:15;6.90;1.00
13245;DHT22;6689;53.400;12.486;2023-04-01T08:24:46;6.80;1.00
13245;DHT22;6689;53.400;12.486;2023-04-01T08:27:20;6.80;1.00
13245;DHT22;6689;53.400;12.486;2023-04-01T08:29:57;6.90;1.00
13245;DHT22;6689;53.400;12.486;2023-04-01T08:32:27;7.00;1.00
13245;DHT22;6689;53.400;12.486;2023-04-01T08:35:09;6.90;1.00
13245;DHT22;6689;53.400;12.486;2023-04-01T08:37:45;6.90;1.00
13245;DHT22;6689;53.400;12.486;2023-04-01T08:40:39;6.90;23.10
13245;DHT22;6689;53.400;12.486;2023-04-01T08:43:21;6.70;61.20
13245;DHT22;6689;53.400;12.486;2023-04-01T08:46:19;6.90;1.00
13245;DHT22;6689;53.400;12.486;2023-04-01T08:49:14;7.00;1.00
13245;DHT22;6689;53.400;12.486;2023-04-01T08:52:09;6.90;4.30
13245;DHT22;6689;53.400;12.486;2023-04-01T08:54:49;6.90;1.00
13245;DHT22;6689;53.400;12.486;2023-04-01T08:57:37;6.90;1.00
13245;DHT22;6689;53.400;12.486;2023-04-01T09:00:15;7.00;1.00
13245;DHT22;6689;53.400;12.486;2023-04-01T09:09:10;6.90;1.00
13245;DHT22;6689;53.400;12.486;2023-04-01T09:11:59;6.60;30.00
13245;DHT22;6689;53.400;12.486;2023-04-01T09:14:49;6.80;77.30
13245;DHT22;6689;53.400;12.486;2023-04-01T09:17:43;6.60;45.00
13245;DHT22;6689;53.400;12.486;2023-04-01T09:20:41;6.40;78.80
13245;DHT22;6689;53.400;12.486;2023-04-01T09:23:29;6.60;99.90
13245;DHT22;6689;53.400;12.486;2023-04-01T09:26:13;6.60;39.00
13245;DHT22;6689;53.400;12.486;2023-04-01T09:28:47;6.90;16.10
13245;DHT22;6689;53.400;12.486;2023-04-01T09:31:40;6.80;31.70
13245;DHT22;6689;53.400;12.486;2023-04-01T09:34:26;6.90;1.00
13245;DHT22;6689;53.400;12.486;2023-04-01T09:37:19;6.90;19.60
13245;DHT22;6689;53.400;12.486;2023-04-01T09:40:02;6.50;18.40
13245;DHT22;6689;53.400;12.486;2023-04-01T09:42:54;6.60;99.90
13245;DHT22;6689;53.400;12.486;2023-04-01T09:45:43;6.70;99.90
13245;DHT22;6689;53.400;12.486;2023-04-01T09:48:27;6.70;85.90
13245;DHT22;6689;53.400;12.486;2023-04-01T09:51:17;6.90;58.40
13245;DHT22;6689;53.400;12.486;2023-04-01T09:54:05;6.90;15.60
13245;DHT22;6689;53.400;12.486;2023-04-01T09:57:04;6.80;21.10
13245;DHT22;6689;53.400;12.486;2023-04-01T09:59:57;6.60;38.30
13245;DHT22;6689;53.400;12.486;2023-04-01T10:02:58;6.50;99.90
13245;DHT22;6689;53.400;12.486;2023-04-01T10:09:34;6.60;99.90
13245;DHT22;6689;53.400;12.486;2023-04-01T10:15:58;6.60;99.90
13245;DHT22;6689;53.400;12.486;2023-04-01T10:21:49;6.50;99.90
13245;DHT22;6689;53.400;12.486;2023-04-01T10:24:47;6.50;99.90
13245;DHT22;6689;53.400;12.486;2023-04-01T10:27:25;6.40;99.90
13245;DHT22;6689;53.400;12.486;2023-04-01T10:30:29;6.60;99.90
13245;DHT22;6689;53.400;12.486;2023-04-01T10:36:43;6.40;70.50
13245;DHT22;6689;53.400;12.486;2023-04-01T10:39:38;6.30;67.30
13245;DHT22;6689;53.400;12.486;2023-04-01T10:51:55;6.50;21.90
13245;DHT22;6689;53.400;12.486;2023-04-01T10:54:43;6.20;99.90
13245;DHT22;6689;53.400;12.486;2023-04-01T10:57:31;6.10;99.90
13245;DHT22;6689;53.400;12.486;2023-04-01T11:00:26;6.50;33.90
13245;DHT22;6689;53.400;12.486;2023-04-01T11:03:30;6.30;38.60
13245;DHT22;6689;53.400;12.486;2023-04-01T11:09:33;6.20;99.90
13245;DHT22;6689;53.400;12.486;2023-04-01T11:12:38;6.20;99.90
13245;DHT22;6689;53.400;12.486;2023-04-01T11:15:46;6.10;88.20
13245;DHT22;6689;53.400;12.486;2023-04-01T11:21:50;6.10;89.60
13245;DHT22;6689;53.400;12.486;2023-04-01T11:24:58;6.10;99.90
13245;DHT22;6689;53.400;12.486;2023-04-01T11:27:45;6.20;99.90
13245;DHT22;6689;53.400;12.486;2023-04-01T11:30:29;6.10;51.80
13245;DHT22;6689;53.400;12.486;2023-04-01T11:33:03;6.30;13.00
13245;DHT22;6689;53.400;12.486;2023-04-01T11:36:02;6.40;1.00
13245;DHT22;6689;53.400;12.486;2023-04-01T11:41:41;6.30;15.80
13245;DHT22;6689;53.400;12.486;2023-04-01T11:44:16;6.30;72.40
13245;DHT22;6689;53.400;12.486;2023-04-01T11:50:03;6.30;1.00
13245;DHT22;6689;53.400;12.486;2023-04-01T11:55:39;6.00;1.00
13245;DHT22;6689;53.400;12.486;2023-04-01T12:01:36;6.20;50.00
13245;DHT22;6689;53.400;12.486;2023-04-01T12:07:43;6.20;1.00
13245;DHT22;6689;53.400;12.486;2023-04-01T12:10:18;6.10;56.00
13245;DHT22;6689;53.400;12.486;2023-04-01T12:12:54;6.10;16.70
13245;DHT22;6689;53.400;12.486;2023-04-01T12:15:32;6.10;16.30
13245;DHT22;6689;53.400;12.486;2023-04-01T12:18:12;6.10;48.40
13245;DHT22;6689;53.400;12.486;2023-04-01T12:20:49;6.30;1.00
13245;DHT22;6689;53.400;12.486;2023-04-01T12:23:39;6.40;9.50
13245;DHT22;6689;53.400;12.486;2023-04-01T12:29:24;6.20;1.00
13245;DHT22;6689;53.400;12.486;2023-04-01T12:32:00;6.10;1.00
13245;DHT22;6689;53.400;12.486;2023-04-01T12:34:54;6.20;1.00
13245;DHT22;6689;53.400;12.486;2023-04-01T12:37:34;6.20;1.00
13245;DHT22;6689;53.400;12.486;2023-04-01T12:40:20;6.00;1.00
13245;DHT22;6689;53.400;12.486;2023-04-01T12:43:02;6.10;1.00
13245;DHT22;6689;53.400;12.486;2023-04-01T12:45:32;6.20;1.00
13245;DHT22;6689;53.400;12.486;2023-04-01T12:48:35;6.10;1.00
13245;DHT22;6689;53.400;12.486;2023-04-01T12:51:36;6.20;1.00
13245;DHT22;6689;53.400;12.486;2023-04-01T12:57:16;6.10;1.00
13245;DHT22;6689;53.400;12.486;2023-04-01T12:59:58;6.20;1.00
13245;DHT22;6689;53.400;12.486;2023-04-01T13:02:37;6.20;1.00
13245;DHT22;6689;53.400;12.486;2023-04-01T13:08:22;6.30;1.00
13245;DHT22;6689;53.400;12.486;2023-04-01T13:11:31;5.90;1.00
13245;DHT22;6689;53.400;12.486;2023-04-01T13:14:19;5.90;1.00
13245;DHT22;6689;53.400;12.486;2023-04-01T13:16:56;6.00;1.00
13245;DHT22;6689;53.400;12.486;2023-04-01T13:19:29;6.20;1.00
13245;DHT22;6689;53.400;12.486;2023-04-01T13:22:04;6.00;1.00
13245;DHT22;6689;53.400;12.486;2023-04-01T13:24:41;6.20;1.00
13245;DHT22;6689;53.400;12.486;2023-04-01T13:27:14;6.20;1.00
13245;DHT22;6689;53.400;12.486;2023-04-01T13:29:49;5.90;1.00
13245;DHT22;6689;53.400;12.486;2023-04-01T13:32:27;5.80;1.00
13245;DHT22;6689;53.400;12.486;2023-04-01T13:35:24;5.80;12.10
13245;DHT22;6689;53.400;12.486;2023-04-01T13:38:13;6.00;1.00
13245;DHT22;6689;53.400;12.486;2023-04-01T13:40:51;6.20;1.00
13245;DHT22;6689;53.400;12.486;2023-04-01T13:43:25;6.10;1.00
13245;DHT22;6689;53.400;12.486;2023-04-01T13:46:09;5.80;1.00
13245;DHT22;6689;53.400;12.486;2023-04-01T13:49:00;5.90;13.50
13245;DHT22;6689;53.400;12.486;2023-04-01T13:55:05;5.70;1.00
13245;DHT22;6689;53.400;12.486;2023-04-01T13:57:52;5.80;1.00
13245;DHT22;6689;53.400;12.486;2023-04-01T14:00:35;5.80;1.00
13245;DHT22;6689;53.400;12.486;2023-04-01T14:03:32;6.00;1.00
13245;DHT22;6689;53.400;12.486;2023-04-01T14:06:14;5.90;1.00
13245;DHT22;6689;53.400;12.486;2023-04-01T14:09:04;5.70;1.00
13245;DHT22;6689;53.400;12.486;2023-04-01T14:11:41;5.70;1.00
13245;DHT22;6689;53.400;12.486;2023-04-01T14:14:22;5.80;1.00
13245;DHT22;6689;53.400;12.486;2023-04-01T14:20:07;5.80;1.00
13245;DHT22;6689;53.400;12.486;2023-04-01T14:22:53;5.50;1.00
13245;DHT22;6689;53.400;12.486;2023-04-01T14:25:44;5.60;1.00
13245;DHT22;6689;53.400;12.486;2023-04-01T14:28:21;5.70;1.00
13245;DHT22;6689;53.400;12.486;2023-04-01T14:31:06;5.70;1.00
13245;DHT22;6689;53.400;12.486;2023-04-01T14:33:46;5.50;1.00
13245;DHT22;6689;53.400;12.486;2023-04-01T14:36:41;5.40;31.60
13245;DHT22;6689;53.400;12.486;2023-04-01T14:39:26;5.30;7.60
13245;DHT22;6689;53.400;12.486;2023-04-01T14:42:08;5.40;1.00
13245;DHT22;6689;53.400;12.486;2023-04-01T14:45:02;5.40;1.00
13245;DHT22;6689;53.400;12.486;2023-04-01T14:47:52;5.30;1.00
13245;DHT22;6689;53.400;12.486;2023-04-01T14:50:23;5.20;1.00
13245;DHT22;6689;53.400;12.486;2023-04-01T14:52:59;4.90;8.50
13245;DHT22;6689;53.400;12.486;2023-04-01T14:55:48;5.30;1.00
13245;DHT22;6689;53.400;12.486;2023-04-01T14:58:19;5.40;1.00
13245;DHT22;6689;53.400;12.486;2023-04-01T15:01:12;5.40;1.00
13245;DHT22;6689;53.400;12.486;2023-04-01T15:03:52;5.30;1.00
13245;DHT22;6689;53.400;12.486;2023-04-01T15:06:35;5.40;1.00
13245;DHT22;6689;53.400;12.486;2023-04-01T15:09:13;5.10;1.00
13245;DHT22;6689;53.400;12.486;2023-04-01T15:11:59;5.10;1.00
13245;DHT22;6689;53.400;12.486;2023-04-01T15:14:50;5.10;1.00
13245;DHT22;6689;53.400;12.486;2023-04-01T15:17:43;5.30;1.00
13245;DHT22;6689;53.400;12.486;2023-04-01T15:20:40;5.30;1.00
13245;DHT22;6689;53.400;12.486;2023-04-01T15:23:39;5.30;1.00
13245;DHT22;6689;53.400;12.486;2023-04-01T15:26:26;5.20;1.00
13245;DHT22;6689;53.400;12.486;2023-04-01T15:29:22;5.30;1.00
13245;DHT22;6689;53.400;12.486;2023-04-01T15:31:55;5.20;1.00
13245;DHT22;6689;53.400;12.486;2023-04-01T15:34:32;5.00;1.00
13245;DHT22;6689;53.400;12.486;2023-04-01T15:37:09;5.20;1.00
13245;DHT22;6689;53.400;12.486;2023-04-01T15:39:48;5.30;1.00
13245;DHT22;6689;53.400;12.486;2023-04-01T15:42:31;5.10;1.00
13245;DHT22;6689;53.400;12.486;2023-04-01T15:45:08;5.10;1.00
13245;DHT22;6689;53.400;12.486;2023-04-01T15:47:42;5.20;1.00
13245;DHT22;6689;53.400;12.486;2023-04-01T15:50:35;5.20;1.00
13245;DHT22;6689;53.400;12.486;2023-04-01T15:53:18;5.20;1.00
13245;DHT22;6689;53.400;12.486;2023-04-01T15:55:51;5.20;1.00
13245;DHT22;6689;53.400;12.486;2023-04-01T15:58:44;4.90;1.00
13245;DHT22;6689;53.400;12.486;2023-04-01T16:01:26;5.10;1.00
13245;DHT22;6689;53.400;12.486;2023-04-01T16:03:59;5.10;1.00
13245;DHT22;6689;53.400;12.486;2023-04-01T16:06:53;4.70;1.00
13245;DHT22;6689;53.400;12.486;2023-04-01T16:09:43;5.10;1.00
13245;DHT22;6689;53.400;12.486;2023-04-01T16:12:19;5.00;1.00
13245;DHT22;6689;53.400;12.486;2023-04-01T16:14:59;5.10;1.00
13245;DHT22;6689;53.400;12.486;2023-04-01T16:18:00;5.10;1.00
13245;DHT22;6689;53.400;12.486;2023-04-01T16:20:43;5.10;1.00
13245;DHT22;6689;53.400;12.486;2023-04-01T16:23:22;5.00;1.00
13245;DHT22;6689;53.400;12.486;2023-04-01T16:26:04;4.70;1.00
13245;DHT22;6689;53.400;12.486;2023-04-01T16:28:36;5.00;1.00
13245;DHT22;6689;53.400;12.486;2023-04-01T16:31:10;5.10;1.00
13245;DHT22;6689;53.400;12.486;2023-04-01T16:33:45;5.00;1.00
13245;DHT22;6689;53.400;12.486;2023-04-01T16:36:20;4.80;1.00
13245;DHT22;6689;53.400;12.486;2023-04-01T16:39:06;4.80;1.00
13245;DHT22;6689;53.400;12.486;2023-04-01T16:41:46;4.80;1.00
13245;DHT22;6689;53.400;12.486;2023-04-01T16:44:18;5.00;1.00
13245;DHT22;6689;53.400;12.486;2023-04-01T16:46:49;5.00;1.00
13245;DHT22;6689;53.400;12.486;2023-04-01T16:49:32;5.00;1.00
13245;DHT22;6689;53.400;12.486;2023-04-01T16:52:13;4.70;1.00
13245;DHT22;6689;53.400;12.486;2023-04-01T16:54:50;4.80;1.00
13245;DHT22;6689;53.400;12.486;2023-04-01T16:57:25;4.80;1.00
13245;DHT22;6689;53.400;12.486;2023-04-01T16:59:57;4.80;1.00
13245;DHT22;6689;53.400;12.486;2023-04-01T17:02:28;4.70;1.00
13245;DHT22;6689;53.400;12.486;2023-04-01T17:05:01;4.80;1.00
13245;DHT22;6689;53.400;12.486;2023-04-01T17:07:43;4.70;1.00
13245;DHT22;6689;53.400;12.486;2023-04-01T17:10:32;4.80;1.00
13245;DHT22;6689;53.400;12.486;2023-04-01T17:16:26;4.90;1.00
13245;DHT22;6689;53.400;12.486;2023-04-01T17:19:01;4.70;1.00
13245;DHT22;6689;53.400;12.486;2023-04-01T17:21:45;4.70;1.00
13245;DHT22;6689;53.400;12.486;2023-04-01T17:24:27;4.40;1.00
13245;DHT22;6689;53.400;12.486;2023-04-01T17:27:03;4.70;1.00
13245;DHT22;6689;53.400;12.486;2023-04-01T17:29:59;4.70;1.00
13245;DHT22;6689;53.400;12.486;2023-04-01T17:32:36;4.50;1.00
13245;DHT22;6689;53.400;12.486;2023-04-01T17:35:12;4.80;1.00
13245;DHT22;6689;53.400;12.486;2023-04-01T17:37:47;4.50;1.00
13245;DHT22;6689;53.400;12.486;2023-04-01T17:40:31;4.50;1.00
13245;DHT22;6689;53.400;12.486;2023-04-01T17:43:09;4.30;1.00
13245;DHT22;6689;53.400;12.486;2023-04-01T17:45:44;4.40;1.00
13245;DHT22;6689;53.400;12.486;2023-04-01T17:48:25;4.40;1.00
13245;DHT22;6689;53.400;12.486;2023-04-01T17:51:10;4.40;1.00
13245;DHT22;6689;53.400;12.486;2023-04-01T17:53:46;4.30;1.00
13245;DHT22;6689;53.400;12.486;2023-04-01T17:56:23;4.30;1.00
13245;DHT22;6689;53.400;12.486;2023-04-01T17:58:59;4.30;1.00
13245;DHT22;6689;53.400;12.486;2023-04-01T18:01:40;4.40;1.00
13245;DHT22;6689;53.400;12.486;2023-04-01T18:07:34;4.20;1.00
13245;DHT22;6689;53.400;12.486;2023-04-01T18:10:20;4.40;1.00
13245;DHT22;6689;53.400;12.486;2023-04-01T18:15:58;4.10;99.90
13245;DHT22;6689;53.400;12.486;2023-04-01T18:18:46;4.10;99.90
13245;DHT22;6689;53.400;12.486;2023-04-01T18:21:22;4.30;99.90
13245;DHT22;6689;53.400;12.486;2023-04-01T18:23:58;4.20;99.90
13245;DHT22;6689;53.400;12.486;2023-04-01T18:26:29;4.30;99.90
13245;DHT22;6689;53.400;12.486;2023-04-01T18:29:03;4.40;99.90